Time;durP1;ratioP1;P1;durP2;ratioP2;P2;SDS_P1;SDS_P2;PMS_P1;PMS_P2;Temp;Humidity;BMP_temperature;BMP_pressure;BME280_temperature;BME280_humidity;BME280_pressure;Samples;Min_cycle;Max_cycle;Signal;HPM_P1;HPM_P2
2022/06/07 02:46:44;;;;;;;4.72;1.17;;;17.50;99.90;;;;;;5658890;23;88839;-73
2022/06/07 02:49:11;;;;;;;3.08;1.40;;;17.60;99.90;;;;;;4896664;28;87004;-73
2022/06/07 02:51:37;;;;;;;3.88;1.67;;;17.60;99.90;;;;;;4897945;28;86958;-74
2022/06/07 02:54:03;;;;;;;4.30;1.55;;;17.60;99.90;;;;;;4895725;28;87662;-74
2022/06/07 02:56:28;;;;;;;2.33;1.60;;;17.50;99.90;;;;;;4897455;28;86816;-74
2022/06/07 02:58:54;;;;;;;3.08;1.52;;;17.40;99.90;;;;;;4899199;28;87263;-74
2022/06/07 03:01:20;;;;;;;2.75;1.17;;;17.40;99.90;;;;;;4898540;28;86904;-72
2022/06/07 03:03:45;;;;;;;5.53;1.70;;;17.40;99.90;;;;;;4897729;28;88628;-72
2022/06/07 03:06:11;;;;;;;2.95;1.20;;;17.50;99.90;;;;;;4897921;28;89461;-73
2022/06/07 03:08:37;;;;;;;2.70;1.02;;;17.60;99.90;;;;;;4898500;28;87004;-73
2022/06/07 03:11:03;;;;;;;2.15;1.10;;;17.60;99.90;;;;;;4898329;28;87145;-72
2022/06/07 03:13:29;;;;;;;2.55;1.02;;;17.50;99.90;;;;;;4897249;28;87223;-73
2022/06/07 03:15:55;;;;;;;2.83;1.15;;;17.50;99.90;;;;;;4896620;28;86960;-73
2022/06/07 03:18:21;;;;;;;3.65;1.13;;;17.60;99.90;;;;;;4897827;28;86556;-73
2022/06/07 03:20:48;;;;;;;4.20;1.98;;;17.40;99.90;;;;;;4897160;28;86264;-74
2022/06/07 03:23:14;;;;;;;4.32;1.85;;;17.20;99.90;;;;;;4896224;28;87837;-73
2022/06/07 03:25:39;;;;;;;3.78;1.40;;;16.90;99.90;;;;;;4898356;28;87409;-73
2022/06/07 03:28:05;;;;;;;3.78;1.38;;;17.10;99.90;;;;;;4898511;28;88258;-73
2022/06/07 03:30:31;;;;;;;3.00;1.50;;;17.20;99.90;;;;;;4897369;28;86957;-73
2022/06/07 03:32:58;;;;;;;5.35;2.03;;;17.20;99.90;;;;;;4895985;28;87176;-71
2022/06/07 03:35:24;;;;;;;4.22;1.67;;;17.30;99.90;;;;;;4898547;28;87426;-72
2022/06/07 03:37:50;;;;;;;3.88;1.55;;;17.30;99.90;;;;;;4897983;28;87060;-72
2022/06/07 03:40:42;;;;;;;5.13;1.63;;;17.40;99.90;;;;;;4898320;28;87426;-73
2022/06/07 03:43:03;;;;;;;5.22;1.88;;;17.40;99.90;;;;;;4896200;28;88532;-72
2022/06/07 03:45:30;;;;;;;5.30;2.22;;;17.50;99.90;;;;;;4895573;28;86359;-72
2022/06/07 03:47:56;;;;;;;4.57;2.30;;;17.30;99.90;;;;;;4897225;28;86992;-72
2022/06/07 03:50:21;;;;;;;6.45;1.98;;;17.20;99.90;;;;;;4897617;28;86649;-71
2022/06/07 03:52:47;;;;;;;3.85;1.70;;;17.10;99.90;;;;;;4896550;28;88299;-72
2022/06/07 03:55:13;;;;;;;6.20;1.60;;;17.20;99.90;;;;;;4894109;28;87904;-71
2022/06/07 03:57:38;;;;;;;6.07;1.92;;;17.40;99.90;;;;;;4891680;28;87126;-72
2022/06/07 04:00:08;;;;;;;6.53;1.50;;;17.50;99.90;;;;;;4893965;28;86971;-72
2022/06/07 04:02:34;;;;;;;2.83;1.33;;;17.50;99.90;;;;;;4888999;28;87262;-73
2022/06/07 04:05:00;;;;;;;5.10;1.60;;;17.60;99.90;;;;;;4894342;28;87347;-72
2022/06/07 04:10:10;;;;;;;4.65;1.67;;;17.70;99.90;;;;;;4896725;28;87055;-72
2022/06/07 04:12:36;;;;;;;5.03;1.60;;;17.70;99.90;;;;;;4889292;28;87099;-72
2022/06/07 04:15:02;;;;;;;3.88;1.20;;;17.70;99.90;;;;;;4895876;28;89412;-71
2022/06/07 04:17:28;;;;;;;3.28;1.58;;;17.80;99.90;;;;;;4896606;28;87596;-72
2022/06/07 04:19:53;;;;;;;4.82;1.88;;;17.80;99.90;;;;;;4901597;28;87432;-71
2022/06/07 04:22:19;;;;;;;5.03;1.67;;;17.70;99.90;;;;;;4900251;28;87104;-72
2022/06/07 04:24:45;;;;;;;5.28;1.52;;;17.70;99.90;;;;;;4897144;28;88085;-71
2022/06/07 04:27:10;;;;;;;3.15;1.70;;;17.60;99.90;;;;;;4897057;28;88743;-71
2022/06/07 04:29:36;;;;;;;4.05;2.03;;;17.40;99.90;;;;;;4897177;28;87163;-71
2022/06/07 04:32:02;;;;;;;3.90;1.60;;;17.40;99.90;;;;;;4896874;28;88530;-71
2022/06/07 04:34:28;;;;;;;2.75;1.20;;;17.40;99.90;;;;;;4897961;28;86402;-72
2022/06/07 04:36:54;;;;;;;3.78;1.40;;;17.30;99.90;;;;;;4894002;28;87084;-72
2022/06/07 04:39:20;;;;;;;3.28;1.48;;;17.30;99.90;;;;;;4897402;28;86965;-72
2022/06/07 04:41:45;;;;;;;2.13;1.13;;;17.20;99.90;;;;;;4895762;28;88300;-71
2022/06/07 04:44:11;;;;;;;2.85;1.45;;;17.30;99.90;;;;;;4897831;28;88182;-71
2022/06/07 04:46:37;;;;;;;6.07;1.88;;;17.20;99.90;;;;;;4895947;28;87031;-72
2022/06/07 04:49:03;;;;;;;4.05;1.40;;;17.00;99.90;;;;;;4896681;28;87105;-71
2022/06/07 04:51:32;;;;;;;5.78;1.42;;;16.80;99.90;;;;;;4896879;28;88039;-72
2022/06/07 04:53:59;;;;;;;4.38;1.02;;;16.80;99.90;;;;;;4895826;28;87095;-72
2022/06/07 04:56:28;;;;;;;2.53;0.90;;;16.70;99.90;;;;;;4897196;28;87294;-72
2022/06/07 04:58:54;;;;;;;3.40;0.80;;;16.70;99.90;;;;;;4897058;28;86269;-71
2022/06/07 05:01:26;;;;;;;3.78;0.70;;;16.60;99.90;;;;;;4896510;28;87531;-71
2022/06/07 05:03:53;;;;;;;3.08;0.60;;;16.80;99.90;;;;;;4893971;28;87185;-72
2022/06/07 05:06:21;;;;;;;2.15;0.63;;;16.80;99.90;;;;;;4896515;28;88280;-71
2022/06/07 05:08:47;;;;;;;2.67;0.90;;;16.90;99.90;;;;;;4897853;28;87479;-72
2022/06/07 05:11:14;;;;;;;3.63;0.80;;;17.00;99.90;;;;;;4897701;28;87183;-73
2022/06/07 05:13:39;;;;;;;2.17;0.52;;;17.00;99.90;;;;;;4896607;28;87883;-73
2022/06/07 05:16:06;;;;;;;1.73;0.70;;;17.00;99.90;;;;;;4891551;28;87039;-73
2022/06/07 05:18:31;;;;;;;1.85;0.95;;;17.00;99.90;;;;;;4895084;28;87010;-73
2022/06/07 05:20:57;;;;;;;2.03;0.70;;;17.10;99.90;;;;;;4898412;28;87857;-74
2022/06/07 05:23:23;;;;;;;4.10;0.47;;;17.00;99.90;;;;;;4897953;28;87800;-73
2022/06/07 05:25:59;;;;;;;2.92;0.50;;;17.00;99.90;;;;;;4896570;28;87173;-74
2022/06/07 05:28:25;;;;;;;2.78;0.77;;;17.00;99.90;;;;;;4893356;28;87233;-73
2022/06/07 05:30:51;;;;;;;2.00;0.35;;;17.10;99.90;;;;;;4895136;28;89630;-73
2022/06/07 05:33:17;;;;;;;5.38;0.43;;;17.00;99.90;;;;;;4897661;28;88039;-73
2022/06/07 05:35:43;;;;;;;3.13;0.50;;;17.00;99.90;;;;;;4897734;28;87515;-73
2022/06/07 05:38:12;;;;;;;2.33;0.68;;;17.00;99.90;;;;;;4901267;28;87427;-73
2022/06/07 05:40:38;;;;;;;2.47;0.70;;;17.10;99.90;;;;;;4898643;28;87872;-74
2022/06/07 05:43:04;;;;;;;2.25;0.50;;;17.10;99.90;;;;;;4901621;28;87029;-73
2022/06/07 05:45:33;;;;;;;3.67;0.50;;;17.00;99.90;;;;;;4898150;28;88197;-73
2022/06/07 05:47:58;;;;;;;4.35;0.77;;;17.10;99.90;;;;;;4893539;28;86484;-73
2022/06/07 05:50:27;;;;;;;5.97;0.50;;;17.10;99.90;;;;;;4897266;28;87184;-72
2022/06/07 05:52:53;;;;;;;4.95;0.80;;;17.00;99.90;;;;;;4894557;28;88151;-73
2022/06/07 05:55:19;;;;;;;4.45;0.75;;;16.90;99.90;;;;;;4900124;28;88359;-73
2022/06/07 05:57:49;;;;;;;4.53;0.60;;;17.00;99.90;;;;;;4894238;28;86837;-72
2022/06/07 06:00:17;;;;;;;4.78;0.50;;;16.90;99.90;;;;;;4899412;28;87172;-73
2022/06/07 06:02:43;;;;;;;2.70;0.80;;;17.00;99.90;;;;;;4900564;28;87284;-73
2022/06/07 06:05:09;;;;;;;1.85;0.40;;;16.80;99.90;;;;;;4898350;28;87107;-73
2022/06/07 06:07:36;;;;;;;5.57;0.50;;;16.90;99.90;;;;;;4898959;28;86986;-73
2022/06/07 06:10:20;;;;;;;1.90;0.50;;;16.90;99.90;;;;;;4900199;28;87195;-73
2022/06/07 06:12:46;;;;;;;1.42;0.52;;;16.90;99.90;;;;;;4896941;28;86397;-73
2022/06/07 06:15:11;;;;;;;5.55;0.43;;;16.70;99.90;;;;;;4895676;28;87104;-72
2022/06/07 06:17:37;;;;;;;4.28;0.52;;;16.80;99.90;;;;;;4898869;28;87040;-75
2022/06/07 06:20:03;;;;;;;4.35;0.68;;;16.90;99.90;;;;;;4897397;28;88016;-73
2022/06/07 06:22:29;;;;;;;5.20;0.68;;;17.10;99.90;;;;;;4895941;28;87312;-73
2022/06/07 06:24:55;;;;;;;2.83;0.80;;;17.10;99.90;;;;;;4899238;28;86740;-73
2022/06/07 06:27:21;;;;;;;3.42;0.63;;;17.10;99.90;;;;;;4898133;28;87142;-73
2022/06/07 06:29:47;;;;;;;1.98;0.63;;;16.80;99.90;;;;;;4898192;28;89246;-73
2022/06/07 06:32:12;;;;;;;4.43;0.77;;;16.80;99.90;;;;;;4899139;28;87421;-73
2022/06/07 06:34:38;;;;;;;3.70;0.73;;;16.80;99.90;;;;;;4898981;28;87327;-73
2022/06/07 06:37:04;;;;;;;4.28;0.80;;;17.10;99.90;;;;;;4898603;28;86577;-74
2022/06/07 06:39:30;;;;;;;3.42;0.60;;;17.40;99.90;;;;;;4898964;28;87675;-73
2022/06/07 06:41:56;;;;;;;2.83;0.60;;;17.30;99.90;;;;;;4897705;28;87999;-73
2022/06/07 06:44:22;;;;;;;3.53;0.80;;;17.50;99.90;;;;;;4898394;28;87493;-73
2022/06/07 06:46:48;;;;;;;2.30;0.70;;;17.70;99.90;;;;;;4898890;28;86990;-73
2022/06/07 06:49:15;;;;;;;2.17;0.50;;;17.70;99.90;;;;;;4873186;28;89939;-73
2022/06/07 06:51:42;;;;;;;2.75;0.65;;;17.90;99.90;;;;;;4897833;28;87063;-73
2022/06/07 06:54:12;;;;;;;1.88;0.63;;;18.10;99.90;;;;;;4895098;28;87290;-73
2022/06/07 06:56:37;;;;;;;;;;;18.40;99.90;;;;;;4898629;28;87528;-73
2022/06/07 06:59:03;;;;;;;1.30;0.65;;;18.60;99.90;;;;;;4900587;28;87556;-73
2022/06/07 07:01:32;;;;;;;2.17;0.80;;;18.70;99.90;;;;;;4903965;28;86363;-73
2022/06/07 07:04:03;;;;;;;2.25;1.00;;;18.80;99.90;;;;;;4898387;28;87006;-74
2022/06/07 07:06:30;;;;;;;3.47;0.70;;;18.70;99.90;;;;;;4896819;28;86802;-73
2022/06/07 07:08:56;;;;;;;3.80;0.50;;;18.20;99.90;;;;;;4891014;28;88693;-73
2022/06/07 07:11:38;;;;;;;3.15;1.25;;;18.00;99.90;;;;;;4899568;28;88134;-73
2022/06/07 07:14:06;;;;;;;1.55;0.60;;;17.80;99.90;;;;;;4894363;28;87121;-72
2022/06/07 07:16:36;;;;;;;1.98;0.73;;;17.80;99.90;;;;;;4894803;28;86915;-73
2022/06/07 07:19:04;;;;;;;1.55;0.30;;;18.00;99.90;;;;;;4895674;28;87235;-73
2022/06/07 07:21:39;;;;;;;1.20;0.57;;;18.10;99.90;;;;;;4895473;28;87297;-73
2022/06/07 07:24:09;;;;;;;2.72;0.40;;;18.20;99.90;;;;;;4896074;28;86791;-73
2022/06/07 07:26:36;;;;;;;2.30;0.40;;;18.50;99.90;;;;;;4898339;28;86156;-73
2022/06/07 07:29:03;;;;;;;5.97;0.40;;;18.60;99.90;;;;;;4892847;28;86720;-73
2022/06/07 07:31:32;;;;;;;1.15;0.32;;;18.50;99.90;;;;;;4890542;28;87157;-74
2022/06/07 07:34:02;;;;;;;1.00;0.30;;;18.70;99.90;;;;;;4888106;28;88214;-73
2022/06/07 07:36:28;;;;;;;1.73;0.30;;;18.70;99.90;;;;;;4894265;28;88048;-73
2022/06/07 07:38:54;;;;;;;1.42;0.30;;;18.60;99.90;;;;;;4896361;28;86954;-73
2022/06/07 07:41:26;;;;;;;2.55;0.30;;;18.60;99.90;;;;;;4898269;28;88079;-73
2022/06/07 07:43:53;;;;;;;1.42;0.30;;;18.80;99.90;;;;;;4897332;28;87150;-72
2022/06/07 07:46:21;;;;;;;1.67;0.30;;;18.70;99.90;;;;;;4897474;28;86889;-73
2022/06/07 07:48:48;;;;;;;3.50;0.40;;;18.80;99.90;;;;;;4897446;28;88611;-73
2022/06/07 07:51:19;;;;;;;1.33;0.20;;;19.20;99.90;;;;;;4896649;28;88373;-73
2022/06/07 07:53:44;;;;;;;0.95;0.22;;;19.50;97.00;;;;;;4897619;28;87009;-73
2022/06/07 07:56:10;;;;;;;1.33;0.13;;;19.70;95.90;;;;;;4897559;28;87398;-73
2022/06/07 07:58:36;;;;;;;1.38;0.20;;;19.70;96.10;;;;;;4890758;28;88330;-73
2022/06/07 08:01:08;;;;;;;2.78;0.20;;;19.60;96.30;;;;;;4895584;28;87190;-72
2022/06/07 08:03:34;;;;;;;1.85;0.20;;;19.70;96.10;;;;;;4897263;28;87014;-72
2022/06/07 08:06:00;;;;;;;0.90;0.28;;;19.70;94.80;;;;;;4895863;28;87458;-73
2022/06/07 08:08:26;;;;;;;0.88;0.20;;;19.70;96.30;;;;;;4893502;28;88235;-73
2022/06/07 08:10:51;;;;;;;0.80;0.22;;;19.70;97.00;;;;;;4896358;28;87348;-74
2022/06/07 08:13:17;;;;;;;2.65;0.20;;;20.00;95.70;;;;;;4897395;28;86632;-73
2022/06/07 08:15:45;;;;;;;1.45;0.65;;;20.30;95.00;;;;;;4897751;28;86237;-73
2022/06/07 08:18:10;;;;;;;1.48;0.30;;;20.70;94.50;;;;;;4896381;28;88079;-73
2022/06/07 08:20:37;;;;;;;1.25;0.22;;;20.70;93.90;;;;;;4894362;28;87554;-73
2022/06/07 08:23:05;;;;;;;3.20;0.20;;;20.40;92.10;;;;;;4893625;28;88131;-73
2022/06/07 08:25:31;;;;;;;1.48;0.30;;;20.40;93.10;;;;;;4895185;28;87068;-73
2022/06/07 08:27:57;;;;;;;3.08;0.20;;;20.50;93.40;;;;;;4895984;28;87016;-73
2022/06/07 08:30:23;;;;;;;1.25;0.30;;;20.60;93.80;;;;;;4892588;28;87820;-73
2022/06/07 08:32:49;;;;;;;0.90;0.20;;;20.60;92.70;;;;;;4893429;28;89251;-73
2022/06/07 08:38:01;;;;;;;0.82;0.40;;;20.40;92.30;;;;;;4894575;28;87201;-73
2022/06/07 08:40:43;;;;;;;0.77;0.20;;;20.50;91.30;;;;;;4894989;28;86387;-73
2022/06/07 08:43:23;;;;;;;0.95;0.20;;;20.50;91.30;;;;;;4899283;28;87301;-73
2022/06/07 08:45:49;;;;;;;1.45;0.20;;;20.40;92.00;;;;;;4892456;28;87156;-72
2022/06/07 08:48:26;;;;;;;1.77;0.30;;;20.50;90.50;;;;;;4896381;28;88233;-73
2022/06/07 08:51:13;;;;;;;2.85;0.40;;;20.70;90.10;;;;;;4895372;28;88020;-73
2022/06/07 08:53:44;;;;;;;3.70;0.20;;;20.60;89.60;;;;;;4888444;28;87396;-72
2022/06/07 08:56:17;;;;;;;3.30;0.93;;;20.70;89.00;;;;;;4892298;28;87223;-73
2022/06/07 08:58:47;;;;;;;1.35;0.30;;;20.70;87.60;;;;;;4896139;28;87056;-73
2022/06/07 09:01:50;;;;;;;0.90;0.20;;;20.70;87.40;;;;;;4896287;28;87017;-72
2022/06/07 09:04:25;;;;;;;0.60;0.20;;;21.00;86.20;;;;;;4896239;28;87157;-73
2022/06/07 09:06:57;;;;;;;1.30;0.30;;;21.30;84.00;;;;;;4897208;28;86413;-74
2022/06/07 09:12:18;;;;;;;1.25;0.30;;;21.10;84.70;;;;;;4897748;28;86890;-72
2022/06/07 09:14:45;;;;;;;1.67;0.20;;;21.00;84.20;;;;;;4897573;28;88024;-73
2022/06/07 09:17:19;;;;;;;0.90;0.20;;;21.10;82.80;;;;;;4897164;28;86820;-72
2022/06/07 09:19:48;;;;;;;2.45;0.25;;;21.50;81.50;;;;;;4897697;28;87742;-73
2022/06/07 09:22:29;;;;;;;1.70;0.30;;;21.30;81.60;;;;;;4898338;28;87715;-72
2022/06/07 09:25:05;;;;;;;1.15;0.30;;;21.50;82.40;;;;;;4899822;28;87009;-73
2022/06/07 09:27:32;;;;;;;2.28;0.30;;;21.80;79.90;;;;;;4899067;28;87110;-73
2022/06/07 09:30:09;;;;;;;1.60;0.32;;;21.90;79.50;;;;;;4899198;28;87272;-75
2022/06/07 09:32:37;;;;;;;2.72;0.30;;;22.20;78.60;;;;;;4898245;28;88442;-74
2022/06/07 09:35:08;;;;;;;2.92;0.30;;;22.50;77.90;;;;;;4900620;28;87420;-73
2022/06/07 09:37:46;;;;;;;2.53;0.25;;;22.70;74.90;;;;;;4899707;28;87217;-73
2022/06/07 09:40:21;;;;;;;1.15;0.30;;;22.60;77.60;;;;;;4900150;28;89083;-73
2022/06/07 09:42:53;;;;;;;1.27;0.55;;;23.80;76.50;;;;;;4902030;28;87390;-73
2022/06/07 09:45:27;;;;;;;1.70;0.32;;;25.20;71.80;;;;;;4907589;28;86923;-73
2022/06/07 09:47:53;;;;;;;1.55;0.50;;;25.60;66.90;;;;;;4902359;28;87240;-74
2022/06/07 09:50:28;;;;;;;0.85;0.30;;;25.40;64.80;;;;;;4897225;28;87225;-73
2022/06/07 09:52:57;;;;;;;1.23;0.20;;;25.20;66.40;;;;;;4891767;28;87951;-74
2022/06/07 09:55:50;;;;;;;3.40;0.32;;;23.80;69.40;;;;;;4899909;28;87062;-73
2022/06/07 09:58:34;;;;;;;1.15;0.30;;;23.20;70.30;;;;;;4899265;28;86162;-73
2022/06/07 10:01:29;;;;;;;1.00;0.30;;;22.90;71.20;;;;;;4897904;28;87244;-74
2022/06/07 10:04:03;;;;;;;;;;;22.30;73.20;;;;;;4895873;28;87508;-73
2022/06/07 10:06:37;;;;;;;1.63;0.55;;;22.10;75.50;;;;;;4900137;28;88566;-73
2022/06/07 10:09:08;;;;;;;1.33;0.40;;;21.70;75.90;;;;;;4893074;28;86923;-72
2022/06/07 10:11:56;;;;;;;5.22;0.60;;;20.70;80.30;;;;;;4893311;28;86704;-73
2022/06/07 10:14:33;;;;;;;2.97;0.60;;;20.50;81.50;;;;;;4895156;28;87626;-74
2022/06/07 10:17:05;;;;;;;1.38;0.50;;;20.10;85.50;;;;;;4896732;28;87009;-73
2022/06/07 10:19:47;;;;;;;3.00;0.75;;;20.00;86.60;;;;;;4887145;28;86995;-73
2022/06/07 10:22:22;;;;;;;0.90;0.40;;;20.20;88.30;;;;;;4894057;28;87534;-73
2022/06/07 10:25:03;;;;;;;1.50;0.40;;;20.30;84.30;;;;;;4893479;28;87303;-73
2022/06/07 10:27:58;;;;;;;1.45;0.70;;;20.20;87.70;;;;;;4892043;28;87166;-73
2022/06/07 10:30:43;;;;;;;1.60;0.40;;;20.40;85.30;;;;;;4896545;28;86920;-73
2022/06/07 10:33:50;;;;;;;2.00;0.38;;;20.70;83.70;;;;;;4889226;28;88592;-73
2022/06/07 10:36:47;;;;;;;1.45;0.55;;;20.80;82.40;;;;;;4893137;28;87174;-74
2022/06/07 10:39:20;;;;;;;1.38;0.40;;;20.90;81.40;;;;;;4894334;28;87333;-73
2022/06/07 10:42:41;;;;;;;2.53;0.80;;;20.90;83.80;;;;;;4889812;28;87138;-74
2022/06/07 10:45:11;;;;;;;;;;;21.80;82.50;;;;;;4890181;28;88153;-74
2022/06/07 10:47:59;;;;;;;1.17;0.40;;;22.70;74.80;;;;;;4895243;28;87010;-74
2022/06/07 10:50:33;;;;;;;3.17;0.52;;;22.70;76.20;;;;;;4893744;28;87236;-73
2022/06/07 10:53:30;;;;;;;0.98;0.40;;;23.60;73.50;;;;;;4893861;28;86509;-74
2022/06/07 10:56:31;;;;;;;1.45;0.32;;;23.90;74.10;;;;;;4892999;28;87377;-74
2022/06/07 10:58:59;;;;;;;1.10;0.20;;;23.50;71.00;;;;;;4889495;28;87457;-72
2022/06/07 11:01:30;;;;;;;1.42;0.32;;;23.40;72.10;;;;;;4891838;28;88310;-73
2022/06/07 11:10:06;;;;;;;1.40;0.32;;;22.70;73.50;;;;;;4892321;28;87536;-73
2022/06/07 11:13:17;;;;;;;1.63;0.47;;;22.70;75.00;;;;;;4897094;28;87052;-73
2022/06/07 11:15:57;;;;;;;0.98;0.50;;;23.50;71.60;;;;;;4894719;28;87335;-72
2022/06/07 11:18:25;;;;;;;1.58;0.57;;;22.80;74.10;;;;;;4895164;28;87181;-73
2022/06/07 11:21:20;;;;;;;1.10;0.40;;;22.80;73.90;;;;;;4895600;28;86558;-73
2022/06/07 11:23:57;;;;;;;1.08;0.40;;;22.90;77.00;;;;;;4894780;28;87374;-72
2022/06/07 11:26:24;;;;;;;1.38;0.28;;;22.40;76.50;;;;;;4896600;28;87051;-74
2022/06/07 11:28:56;;;;;;;1.10;0.30;;;22.60;77.30;;;;;;4897064;28;88489;-73
2022/06/07 11:31:33;;;;;;;1.58;0.20;;;23.50;76.60;;;;;;4895353;28;87368;-74
2022/06/07 11:34:23;;;;;;;0.70;0.30;;;23.80;72.30;;;;;;4896888;28;87414;-73
2022/06/07 11:36:51;;;;;;;0.70;0.20;;;24.10;72.10;;;;;;4899447;28;87036;-73
2022/06/07 11:39:30;;;;;;;0.75;0.20;;;24.40;71.60;;;;;;4898970;28;88134;-73
2022/06/07 11:42:35;;;;;;;1.13;0.47;;;24.60;69.80;;;;;;4898977;28;86991;-72
2022/06/07 11:45:25;;;;;;;1.00;0.57;;;24.90;65.50;;;;;;4898432;28;86895;-73
2022/06/07 11:48:01;;;;;;;0.70;0.25;;;24.90;65.00;;;;;;4897492;28;86490;-73
2022/06/07 11:50:39;;;;;;;0.80;0.20;;;24.90;65.10;;;;;;4899581;28;86953;-72
2022/06/07 11:53:32;;;;;;;0.90;0.20;;;24.60;64.40;;;;;;4899107;28;87994;-72
2022/06/07 11:56:40;;;;;;;0.70;0.30;;;24.10;66.60;;;;;;4896059;28;88208;-71
2022/06/07 11:59:18;;;;;;;2.08;0.40;;;24.00;68.80;;;;;;4895297;28;87021;-73
2022/06/07 12:02:04;;;;;;;0.73;0.40;;;24.10;68.30;;;;;;4898649;28;88471;-73
2022/06/07 12:04:37;;;;;;;0.40;0.10;;;23.50;65.10;;;;;;4863317;28;87317;-74
2022/06/07 12:07:41;;;;;;;2.63;0.20;;;23.10;66.30;;;;;;4899747;28;87083;-72
2022/06/07 12:10:19;;;;;;;1.02;0.10;;;23.10;68.40;;;;;;4896648;28;87858;-72
2022/06/07 12:12:53;;;;;;;0.30;0.13;;;23.00;64.90;;;;;;4897611;28;88291;-73
2022/06/07 12:15:24;;;;;;;2.63;0.35;;;23.70;64.60;;;;;;4897378;28;86401;-73
2022/06/07 12:18:06;;;;;;;0.95;0.10;;;23.90;62.90;;;;;;4898758;28;86950;-72
2022/06/07 12:20:32;;;;;;;;;;;23.30;63.00;;;;;;4899511;28;87051;-73
2022/06/07 12:23:12;;;;;;;0.40;0.20;;;23.40;71.30;;;;;;4897050;28;87976;-72
2022/06/07 12:25:39;;;;;;;0.50;0.17;;;23.90;67.50;;;;;;4898446;28;89336;-72
2022/06/07 12:28:05;;;;;;;1.83;0.15;;;24.10;66.00;;;;;;4897561;28;86936;-73
2022/06/07 12:30:36;;;;;;;0.32;0.13;;;24.00;66.30;;;;;;4899067;28;86917;-73
2022/06/07 12:33:33;;;;;;;0.43;0.13;;;23.70;63.40;;;;;;4897713;28;87094;-72
2022/06/07 12:36:16;;;;;;;0.85;0.20;;;23.40;65.60;;;;;;4897596;28;90838;-73
2022/06/07 12:38:45;;;;;;;0.70;0.22;;;22.60;65.50;;;;;;4880262;28;87234;-72
2022/06/07 12:41:24;;;;;;;0.70;0.20;;;22.40;65.70;;;;;;4897749;28;86564;-73
2022/06/07 12:43:55;;;;;;;0.88;0.38;;;22.50;72.90;;;;;;4896312;28;87597;-72
2022/06/07 12:46:24;;;;;;;0.85;0.22;;;22.90;73.50;;;;;;4896421;28;86680;-72
2022/06/07 12:48:51;;;;;;;1.20;0.32;;;23.30;69.30;;;;;;4897143;28;88018;-72
2022/06/07 12:51:22;;;;;;;2.95;0.22;;;23.80;66.70;;;;;;4897805;28;87019;-73
2022/06/07 12:53:49;;;;;;;2.05;0.43;;;24.20;67.00;;;;;;4896888;28;88226;-73
2022/06/07 12:56:18;;;;;;;5.00;1.02;;;24.70;67.80;;;;;;4897084;28;87309;-74
2022/06/07 12:58:47;;;;;;;0.40;0.10;;;24.90;62.40;;;;;;4897406;28;86956;-73
2022/06/07 13:01:40;;;;;;;0.70;0.32;;;24.60;61.60;;;;;;4895019;28;86916;-73
2022/06/07 13:04:39;;;;;;;3.20;0.30;;;24.50;63.80;;;;;;4896586;28;87338;-73
2022/06/07 13:07:08;;;;;;;0.80;0.22;;;24.40;64.40;;;;;;4897720;28;87483;-72
2022/06/07 13:09:33;;;;;;;;;;;24.50;60.20;;;;;;4898557;28;87395;-73
2022/06/07 13:12:00;;;;;;;0.50;0.13;;;24.20;61.40;;;;;;4897950;28;86781;-73
2022/06/07 13:14:26;;;;;;;1.10;0.22;;;23.50;63.30;;;;;;4887259;28;87903;-73
2022/06/07 13:16:52;;;;;;;0.73;0.20;;;23.10;63.90;;;;;;4880600;28;89010;-72
2022/06/07 13:19:25;;;;;;;1.88;0.20;;;22.60;64.90;;;;;;4897649;28;87125;-73
2022/06/07 13:22:02;;;;;;;2.75;0.32;;;22.90;62.20;;;;;;4897384;28;87661;-73
2022/06/07 13:24:46;;;;;;;1.10;0.13;;;22.90;62.80;;;;;;4897233;28;87268;-73
2022/06/07 13:27:43;;;;;;;0.55;0.20;;;22.80;66.10;;;;;;4897803;28;87826;-74
2022/06/07 13:30:32;;;;;;;0.30;0.20;;;23.00;63.90;;;;;;4897402;28;87003;-73
2022/06/07 13:33:17;;;;;;;1.33;0.10;;;23.00;64.30;;;;;;4886642;28;86207;-73
2022/06/07 13:35:44;;;;;;;2.92;0.22;;;22.80;67.90;;;;;;4896079;28;86732;-73
2022/06/07 13:38:36;;;;;;;1.20;0.20;;;22.40;71.30;;;;;;4896261;28;88585;-72
2022/06/07 13:41:11;;;;;;;0.98;0.32;;;21.90;76.30;;;;;;4896544;28;87960;-72
2022/06/07 13:43:53;;;;;;;1.80;0.40;;;21.20;79.30;;;;;;4897423;28;87042;-73
2022/06/07 13:46:27;;;;;;;;;;;20.30;83.90;;;;;;4895002;28;87592;-73
2022/06/07 13:54:54;;;;;;;1.80;0.20;;;18.40;90.70;;;;;;4865361;28;89073;-73
2022/06/07 13:57:21;;;;;;;5.00;0.30;;;18.40;91.20;;;;;;4896709;28;86983;-74
2022/06/07 13:59:49;;;;;;;1.90;0.20;;;18.60;92.10;;;;;;4899248;28;87359;-73
2022/06/07 14:02:15;;;;;;;1.58;0.20;;;18.70;92.20;;;;;;4899961;28;88174;-72
2022/06/07 14:04:41;;;;;;;2.20;0.22;;;18.70;91.60;;;;;;4898666;28;87191;-73
2022/06/07 14:07:14;;;;;;;2.38;0.25;;;18.70;91.50;;;;;;4899224;28;88123;-73
2022/06/07 14:09:43;;;;;;;1.17;0.10;;;18.80;91.60;;;;;;4896092;28;88401;-73
2022/06/07 14:12:10;;;;;;;0.82;0.10;;;18.70;91.80;;;;;;4899560;28;86956;-73
2022/06/07 14:14:35;;;;;;;1.25;0.25;;;19.00;91.50;;;;;;4899152;28;87577;-73
2022/06/07 14:17:22;;;;;;;1.17;0.20;;;19.20;91.70;;;;;;4900272;28;87162;-72
2022/06/07 14:19:53;;;;;;;1.88;0.20;;;19.40;91.10;;;;;;4899728;28;86967;-72
2022/06/07 14:22:22;;;;;;;0.80;0.10;;;19.40;91.80;;;;;;4900850;28;87507;-73
2022/06/07 14:24:49;;;;;;;1.10;0.20;;;19.30;91.40;;;;;;4898952;28;86132;-73
2022/06/07 14:27:20;;;;;;;1.00;0.20;;;19.40;91.30;;;;;;4899361;28;87570;-73
2022/06/07 14:29:46;;;;;;;1.65;0.22;;;19.70;91.60;;;;;;4899945;28;87349;-72
2022/06/07 14:32:21;;;;;;;1.15;0.20;;;20.20;91.20;;;;;;4898633;28;88033;-73
2022/06/07 14:34:47;;;;;;;2.55;0.38;;;20.90;87.20;;;;;;4899151;28;87027;-73
2022/06/07 14:37:15;;;;;;;2.42;0.30;;;21.20;86.40;;;;;;4899412;28;87271;-73
2022/06/07 14:39:43;;;;;;;1.17;0.20;;;21.40;86.00;;;;;;4899188;28;87752;-73
2022/06/07 14:42:09;;;;;;;2.15;0.30;;;21.70;88.20;;;;;;4899235;28;86805;-72
2022/06/07 14:44:35;;;;;;;2.72;0.40;;;22.00;87.60;;;;;;4898738;28;86509;-73
2022/06/07 14:47:02;;;;;;;2.03;0.22;;;22.20;86.10;;;;;;4898413;28;87322;-72
2022/06/07 14:49:32;;;;;;;3.63;0.45;;;22.20;83.60;;;;;;4898777;28;87128;-72
2022/06/07 14:51:58;;;;;;;2.33;0.45;;;22.20;83.40;;;;;;4899709;28;87000;-73
2022/06/07 14:54:30;;;;;;;2.50;0.20;;;22.20;84.90;;;;;;4898529;28;87043;-73
2022/06/07 14:56:57;;;;;;;2.85;0.43;;;22.10;80.70;;;;;;4898301;28;88158;-73
2022/06/07 14:59:24;;;;;;;1.63;0.20;;;21.90;81.20;;;;;;4893967;28;87770;-73
2022/06/07 15:02:31;;;;;;;1.00;0.20;;;21.20;82.30;;;;;;4898876;28;87504;-72
2022/06/07 15:05:13;;;;;;;1.70;0.20;;;20.70;85.50;;;;;;4897509;28;87013;-74
2022/06/07 15:07:52;;;;;;;1.48;0.43;;;20.70;87.60;;;;;;4882209;28;88370;-74
2022/06/07 15:10:21;;;;;;;0.85;0.25;;;20.30;86.40;;;;;;4897926;28;86988;-73
2022/06/07 15:12:47;;;;;;;3.47;0.20;;;19.60;90.80;;;;;;4898753;28;86868;-72
2022/06/07 15:15:13;;;;;;;3.03;0.20;;;19.40;90.50;;;;;;4897901;28;86726;-72
2022/06/07 15:17:45;;;;;;;1.20;0.40;;;18.70;92.70;;;;;;4898346;28;87466;-72
2022/06/07 15:20:39;;;;;;;1.25;0.20;;;18.50;95.80;;;;;;4896885;28;86733;-72
2022/06/07 15:23:22;;;;;;;3.03;0.20;;;18.90;95.60;;;;;;4887440;28;88061;-73
2022/06/07 15:25:51;;;;;;;1.70;0.30;;;19.30;97.30;;;;;;4897814;28;86846;-72
2022/06/07 15:28:18;;;;;;;1.88;0.20;;;19.80;98.00;;;;;;4893214;28;87270;-73
2022/06/07 15:30:44;;;;;;;1.15;0.20;;;20.30;96.40;;;;;;4893614;28;87286;-73
2022/06/07 15:33:10;;;;;;;3.03;0.30;;;20.60;93.10;;;;;;4891821;28;87388;-73
2022/06/07 15:35:39;;;;;;;1.75;0.20;;;21.00;93.30;;;;;;4895994;28;87099;-72
2022/06/07 15:38:10;;;;;;;2.88;0.10;;;21.20;92.30;;;;;;4896862;28;87176;-72
2022/06/07 15:40:37;;;;;;;3.42;0.20;;;21.60;87.50;;;;;;4899966;28;87303;-73
2022/06/07 15:43:03;;;;;;;0.98;0.25;;;21.60;87.70;;;;;;4897057;28;86942;-72
2022/06/07 15:45:38;;;;;;;3.33;0.10;;;21.60;85.90;;;;;;4896678;28;87235;-72
2022/06/07 15:48:22;;;;;;;1.10;0.22;;;21.40;87.50;;;;;;4896343;28;87872;-73
2022/06/07 15:50:54;;;;;;;0.52;0.13;;;21.30;87.30;;;;;;4895277;28;87547;-72
2022/06/07 15:53:29;;;;;;;2.45;0.20;;;21.40;85.70;;;;;;4896334;28;87259;-73
2022/06/07 15:55:55;;;;;;;1.15;0.10;;;21.40;85.60;;;;;;4900216;28;87052;-73
2022/06/07 16:01:07;;;;;;;2.45;0.20;;;21.10;86.20;;;;;;4896740;28;87232;-73
2022/06/07 16:03:34;;;;;;;0.85;0.10;;;20.70;88.50;;;;;;4897187;28;86829;-72
2022/06/07 16:06:01;;;;;;;0.47;0.10;;;20.60;90.10;;;;;;4898114;28;86487;-72
2022/06/07 16:08:28;;;;;;;0.50;0.10;;;20.70;90.30;;;;;;4897995;28;87442;-72
2022/06/07 16:10:53;;;;;;;3.78;0.10;;;20.70;90.00;;;;;;4897014;28;88158;-73
2022/06/07 16:13:20;;;;;;;0.43;0.10;;;20.60;85.70;;;;;;4889159;28;88070;-72
2022/06/07 16:15:48;;;;;;;0.73;0.20;;;20.20;88.90;;;;;;4896892;28;87112;-73
2022/06/07 16:18:15;;;;;;;0.90;0.10;;;20.10;90.20;;;;;;4898023;28;87228;-72
2022/06/07 16:20:41;;;;;;;1.83;0.10;;;20.20;90.10;;;;;;4897077;28;87214;-73